Thunder radar more information blitzortung!


Radar de pluja more information rain snow radar


Visita la nostra xarxa de llocs de meteo:

Template documentation
and downloads

And another site



No particular awareness of the weather is required.    There are no Weather-warnings

Pagina Historial Weather Underground text

Diari Resum Marc 17, 2016 Unitats:  Mètric    Imperial   Tant
« Previous Dia
SegĂźent Dia »
Diari Setmana Mensual Anual Personalitzada
  Maxima: Minima: Media:
Temperatura: -17.8 °C -15.5 °C -12.8 °C
Punt de rosada: -17.8 °C -17.4 °C -15.8 °C
Humitat: Humidity % 60 % 69 %
Wind Speed: 0 km/h 0 km/h 7.2 km/h
RĂ fegues de vent: 0 km/h - -
Vent:- - SE
Pression baro: 0 hPa 34496.6 hPa -
Precipitacions: 0 mm    
Historical Graphs
 
 
Dades de taula per Marc 17, 2016
Temps Temperatura Punt de rosada Pression baro Vent Wind Speed RĂ fegues de vent Humitat Rainfall Rate (Hourly)
-17.8 °C -17.8 °C 0 hPa Calm     Humidity % 0 mm
00:05 -14.9 °C -17 °C 34533.8 hPa NE 5.1 km/h 10.3 km/h 77 % 0 mm
00:15 -14.9 °C -17 °C 34533.8 hPa NNE 7.7 km/h 10.3 km/h 77 % 0 mm
00:25 -15 °C -17.1 °C 34533.8 hPa NE 2.6 km/h 7.7 km/h 77 % 0 mm
00:35 -14.9 °C -17 °C 34533.8 hPa NE 2.6 km/h 5.1 km/h 77 % 0 mm
00:45 -15 °C -17.1 °C 34533.8 hPa NNW 5.1 km/h 5.1 km/h 77 % 0 mm
00:55 -15 °C -17.1 °C 34533.8 hPa WSW 5.1 km/h 7.7 km/h 77 % 0 mm
01:05 -15.1 °C -16.9 °C 34533.8 hPa WSW 2.6 km/h 5.1 km/h 79 % 0 mm
01:15 -15 °C -16.8 °C 34533.8 hPa NE 5.1 km/h 7.7 km/h 79 % 0 mm
01:25 -15 °C -16.9 °C 34533.8 hPa NE 12.9 km/h 15.6 km/h 78 % 0 mm
01:35 -15 °C -17.1 °C 34496.6 hPa NE 5.1 km/h 7.7 km/h 77 % 0 mm
01:45 -14.9 °C -16.9 °C 34533.8 hPa NNW 2.6 km/h 5.1 km/h 77 % 0 mm
01:55 -14.8 °C -16.8 °C 34533.8 hPa WNW 2.6 km/h 5.1 km/h 77 % 0 mm
02:05 -14.7 °C -16.7 °C 34533.8 hPa South 2.6 km/h 2.6 km/h 77 % 0 mm
02:15 -14.6 °C -16.7 °C 34533.8 hPa Calm   2.6 km/h 77 % 0 mm
02:25 -14.6 °C -16.6 °C 34533.8 hPa Calm   2.6 km/h 77 % 0 mm
02:35 -14.6 °C -16.6 °C 34533.8 hPa SW 5.1 km/h 7.7 km/h 77 % 0 mm
02:45 -14.4 °C -16.4 °C 34567.7 hPa SW 5.1 km/h 7.7 km/h 78 % 0 mm
02:55 -14.3 °C -16.4 °C 34567.7 hPa SW 7.7 km/h 10.3 km/h 77 % 0 mm
03:05 -14.2 °C -16.3 °C 34601.5 hPa SW 5.1 km/h 10.3 km/h 77 % 0 mm
03:15 -14.1 °C -16.2 °C 34601.5 hPa SW 7.7 km/h 10.3 km/h 77 % 0 mm
03:25 -14 °C -16.1 °C 34601.5 hPa SW 2.6 km/h 10.3 km/h 77 % 0 mm
03:35 -13.8 °C -15.9 °C 34601.5 hPa SW 5.1 km/h 5.1 km/h 77 % 0 mm
03:45 -13.7 °C -15.8 °C 34601.5 hPa SW 2.6 km/h 5.1 km/h 77 % 0 mm
03:55 -13.4 °C -15.6 °C 34601.5 hPa Calm   5.1 km/h 76 % 0 mm
04:05 -13.3 °C -15.7 °C 34601.5 hPa NE 5.1 km/h 5.1 km/h 74 % 0 mm
04:15 -13.2 °C -15.9 °C 34601.5 hPa NE 12.9 km/h 12.9 km/h 72 % 0 mm
04:25 -13.1 °C -15.8 °C 34601.5 hPa NE 5.1 km/h 12.9 km/h 71 % 0 mm
04:35 -12.8 °C -15.7 °C 34601.5 hPa NE 5.1 km/h 10.3 km/h 70 % 0 mm
04:45 -12.3 °C -15.3 °C 34601.5 hPa NE 7.7 km/h 7.7 km/h 69 % 0 mm
10:46 -12.4 °C -15.7 °C 34601.5 hPa NNE 9 km/h 9 km/h 67 % 0 mm
10:51 -12.4 °C -15.6 °C 34601.5 hPa NE 6.3 km/h 6.3 km/h 67 % 0 mm
10:56 -12.2 °C -15.4 °C 34601.5 hPa ESE 15 km/h 15 km/h 67 % 0 mm
11:01 -12.3 °C -15.7 °C 34601.5 hPa NNW 9 km/h 9 km/h 66 % 0 mm
11:06 -12.3 °C -15.5 °C 34601.5 hPa West 6 km/h 6 km/h 67 % 0 mm
11:11 -12 °C -15.4 °C 34601.5 hPa West 6 km/h 6 km/h 66 % 0 mm
11:16 -11.9 °C -15.4 °C 34601.5 hPa NE 6 km/h 6 km/h 65 % 0 mm
11:21 -12 °C -15.6 °C 34601.5 hPa NNE 15 km/h 15 km/h 64 % 0 mm
11:26 -12.2 °C -15.8 °C 34601.5 hPa North 9 km/h 9 km/h 64 % 0 mm
11:31 -11.9 °C -15.5 °C 34601.5 hPa NE 16.6 km/h 16.6 km/h 64 % 0 mm
11:36 -11.9 °C -15.7 °C 34601.5 hPa North 17.9 km/h 17.9 km/h 63 % 0 mm
11:41 -11.9 °C -15.7 °C 34567.7 hPa NE 15 km/h 15 km/h 63 % 0 mm
11:46 -11.9 °C -15.7 °C 34567.7 hPa NNW 11.9 km/h 11.9 km/h 63 % 0 mm
11:51 -11.7 °C -15.4 °C 34567.7 hPa ESE 7.6 km/h 7.6 km/h 64 % 0 mm
11:56 -11.6 °C -15.4 °C 34567.7 hPa ESE 17.9 km/h 17.9 km/h 63 % 0 mm
12:01 -11.6 °C -15.4 °C 34567.7 hPa ESE 14.5 km/h 14.5 km/h 63 % 0 mm
12:11 -11.6 °C -15.3 °C 34567.7 hPa East 12.7 km/h 12.7 km/h 63 % 0 mm
12:16 -11.7 °C -15.6 °C 34567.7 hPa ENE 9 km/h 9 km/h 62 % 0 mm
12:21 -11.6 °C -15.3 °C 34567.7 hPa ENE 9 km/h 9 km/h 63 % 0 mm
12:26 -11.6 °C -15.5 °C 34567.7 hPa ENE 11.9 km/h 11.9 km/h 62 % 0 mm
12:31 -11.7 °C -15.4 °C 34567.7 hPa ESE 15 km/h 15 km/h 63 % 0 mm
12:36 -11.7 °C -15.5 °C 34567.7 hPa ESE 23.8 km/h 23.8 km/h 63 % 0 mm
12:41 -11.6 °C -15.4 °C 34567.7 hPa ESE 11.9 km/h 11.9 km/h 63 % 0 mm
12:46 -11.6 °C -15.5 °C 34567.7 hPa NE 9 km/h 9 km/h 62 % 0 mm
12:51 -11.7 °C -15.4 °C 34567.7 hPa East 14.5 km/h 14.5 km/h 63 % 0 mm
12:56 -11.6 °C -15.2 °C 34601.5 hPa NNE 12.7 km/h 12.7 km/h 64 % 0 mm
13:01 -11.7 °C -15.4 °C 34601.5 hPa NNE 15 km/h 15 km/h 63 % 0 mm
13:06 -11.7 °C -15.4 °C 34601.5 hPa ESE 11.9 km/h 11.9 km/h 63 % 0 mm
13:11 -11.6 °C -15.4 °C 34601.5 hPa ESE 11.1 km/h 11.1 km/h 63 % 0 mm
13:16 -11.6 °C -15.3 °C 34601.5 hPa NNE 12.2 km/h 12.2 km/h 63 % 0 mm
13:21 -11.7 °C -15.4 °C 34601.5 hPa East 9 km/h 9 km/h 63 % 0 mm
13:26 -11.7 °C -15.4 °C 34601.5 hPa ENE 9.3 km/h 9.3 km/h 63 % 0 mm
13:31 -11.8 °C -15.5 °C 34601.5 hPa NE 9 km/h 9 km/h 63 % 0 mm
13:36 -11.8 °C -15.6 °C 34601.5 hPa NNE 11.9 km/h 11.9 km/h 63 % 0 mm
13:41 -11.8 °C -15.5 °C 34601.5 hPa ESE 11.9 km/h 11.9 km/h 63 % 0 mm
13:46 -11.7 °C -15.5 °C 34601.5 hPa NNE 9 km/h 9 km/h 63 % 0 mm
13:51 -11.7 °C -15.5 °C 34601.5 hPa ENE 6 km/h 6 km/h 63 % 0 mm
13:56 -11.5 °C -15.3 °C 34567.7 hPa NE 9 km/h 9 km/h 63 % 0 mm
14:01 -11.6 °C -15.3 °C 34567.7 hPa East 11.9 km/h 11.9 km/h 63 % 0 mm
14:06 -11.6 °C -15.3 °C 34567.7 hPa ESE 17.9 km/h 17.9 km/h 63 % 0 mm
14:11 -11.6 °C -15.4 °C 34567.7 hPa SE 12.2 km/h 12.2 km/h 63 % 0 mm
14:16 -11.7 °C -15.4 °C 34567.7 hPa East 9 km/h 9 km/h 63 % 0 mm
14:21 -11.5 °C -15.3 °C 34567.7 hPa SE 11.9 km/h 11.9 km/h 63 % 0 mm
14:26 -11.5 °C -15.3 °C 34533.8 hPa East 17.9 km/h 17.9 km/h 63 % 0 mm
14:31 -11.6 °C -15.4 °C 34533.8 hPa ESE 17.9 km/h 17.9 km/h 62 % 0 mm
14:36 -11.6 °C -15.5 °C 34533.8 hPa SSE 17.9 km/h 17.9 km/h 62 % 0 mm
14:41 -11.6 °C -15.5 °C 34533.8 hPa South 9 km/h 9 km/h 62 % 0 mm
14:46 -11.6 °C -15.4 °C 34533.8 hPa NE 6 km/h 6 km/h 62 % 0 mm
14:51 -11.5 °C -15.4 °C 34533.8 hPa NE 6.3 km/h 6.3 km/h 62 % 0 mm
14:56 -11.5 °C -15.4 °C 34533.8 hPa ESE 15 km/h 15 km/h 62 % 0 mm
15:01 -11.5 °C -15.4 °C 34533.8 hPa ESE 7.6 km/h 7.6 km/h 62 % 0 mm
15:06 -11.4 °C -15.4 °C 34533.8 hPa ESE 9.3 km/h 9.3 km/h 61 % 0 mm
15:11 -11.4 °C -15.4 °C 34533.8 hPa NE 9.3 km/h 9.3 km/h 61 % 0 mm
15:16 -11.2 °C -15.2 °C 34533.8 hPa ESE 19.2 km/h 19.2 km/h 61 % 0 mm
15:21 -11.1 °C -15.1 °C 34533.8 hPa SSW 6 km/h 6 km/h 61 % 0 mm
15:26 -11.1 °C -15.1 °C 34496.6 hPa ENE 9 km/h 9 km/h 61 % 0 mm
15:31 -11.3 °C -15.4 °C 34496.6 hPa ESE 11.9 km/h 11.9 km/h 60 % 0 mm
15:36 -11.3 °C -15.3 °C 34496.6 hPa SE 15 km/h 15 km/h 61 % 0 mm
15:41 -11.3 °C -15.4 °C 34533.8 hPa ESE 15.3 km/h 15.3 km/h 61 % 0 mm
15:46 -11.4 °C -15.4 °C 34533.8 hPa ENE 12.2 km/h 12.2 km/h 61 % 0 mm
15:51 -11.4 °C -15.4 °C 34533.8 hPa ESE 20.9 km/h 20.9 km/h 61 % 0 mm
15:56 -11.6 °C -15.7 °C 34533.8 hPa East 15 km/h 15 km/h 61 % 0 mm
16:01 -11.6 °C -15.7 °C 34533.8 hPa ESE 16.1 km/h 16.1 km/h 61 % 0 mm
16:06 -11.7 °C -15.6 °C 34533.8 hPa ENE 15 km/h 15 km/h 62 % 0 mm
16:11 -11.7 °C -15.6 °C 34533.8 hPa NE 15 km/h 15 km/h 62 % 0 mm
16:16 -11.8 °C -15.7 °C 34533.8 hPa ESE 15.3 km/h 15.3 km/h 62 % 0 mm
16:21 -11.8 °C -15.7 °C 34533.8 hPa ESE 15.3 km/h 15.3 km/h 62 % 0 mm
16:26 -11.8 °C -15.6 °C 34533.8 hPa NNE 15.6 km/h 15.6 km/h 63 % 0 mm
16:36 -11.8 °C -15.6 °C 34533.8 hPa ESE 11.9 km/h 11.9 km/h 63 % 0 mm
16:41 -11.9 °C -15.7 °C 34533.8 hPa ENE 20.9 km/h 20.9 km/h 63 % 0 mm
16:46 -11.9 °C -15.6 °C 34533.8 hPa ESE 17.9 km/h 17.9 km/h 64 % 0 mm
16:51 -11.9 °C -15.6 °C 34533.8 hPa East 9 km/h 9.3 km/h 64 % 0 mm
16:56 -11.9 °C -15.6 °C 34533.8 hPa NNE 15 km/h 15 km/h 64 % 0 mm
17:01 -11.9 °C -15.6 °C 34533.8 hPa ESE 11.9 km/h 11.9 km/h 64 % 0 mm
17:06 -11.9 °C -15.7 °C 34533.8 hPa NE 11.1 km/h 11.1 km/h 63 % 0 mm
17:11 -11.9 °C -15.7 °C 34533.8 hPa ESE 15 km/h 15 km/h 63 % 0 mm
17:16 -11.9 °C -15.7 °C 34533.8 hPa NNE 11.9 km/h 11.9 km/h 63 % 0 mm
17:21 -11.9 °C -15.7 °C 34533.8 hPa ESE 11.9 km/h 11.9 km/h 63 % 0 mm
17:26 -11.8 °C -15.6 °C 34533.8 hPa ENE 15 km/h 15 km/h 63 % 0 mm
17:36 -11.9 °C -15.7 °C 34533.8 hPa NE 15 km/h 15 km/h 63 % 0 mm
17:41 -11.8 °C -15.6 °C 34533.8 hPa ESE 15 km/h 15 km/h 63 % 0 mm
17:46 -11.8 °C -15.6 °C 34533.8 hPa ESE 15 km/h 15 km/h 63 % 0 mm
17:51 -11.8 °C -15.4 °C 34533.8 hPa NNE 15 km/h 15 km/h 64 % 0 mm
17:56 -11.8 °C -15.5 °C 34533.8 hPa ENE 11.9 km/h 11.9 km/h 63 % 0 mm
18:00 -13.2 °C -15.6 °C 34601.5 hPa Calm     74 % 0 mm
18:01 -11.8 °C -15.6 °C 34533.8 hPa ESE 10.3 km/h 10.3 km/h 63 % 0 mm
18:06 -11.9 °C -15.7 °C 34533.8 hPa East 11.9 km/h 11.9 km/h 63 % 0 mm
18:10 -13.2 °C -15.7 °C 34601.5 hPa WNW 2.6 km/h 2.6 km/h 74 % 0 mm
18:11 -11.9 °C -15.6 °C 34533.8 hPa ENE 11.9 km/h 11.9 km/h 64 % 0 mm
18:16 -12 °C -15.6 °C 34533.8 hPa ENE 9 km/h 9 km/h 64 % 0 mm
18:20 -13.3 °C -15.6 °C 34601.5 hPa Calm   5.1 km/h 75 % 0 mm
18:21 -12 °C -15.6 °C 34533.8 hPa East 9 km/h 9 km/h 64 % 0 mm
18:26 -12.1 °C -15.7 °C 34533.8 hPa East 11.9 km/h 11.9 km/h 64 % 0 mm
18:30 -13.3 °C -15.7 °C 34601.5 hPa Calm     75 % 0 mm
18:31 -12.1 °C -15.7 °C 34533.8 hPa ESE 9 km/h 9 km/h 64 % 0 mm
18:36 -12.1 °C -15.6 °C 34533.8 hPa ESE 15 km/h 15 km/h 65 % 0 mm
18:40 -13.4 °C -15.7 °C 34601.5 hPa Calm   2.6 km/h 75 % 0 mm
18:41 -12.1 °C -15.6 °C 34533.8 hPa ENE 9 km/h 9 km/h 65 % 0 mm
18:46 -12.2 °C -15.7 °C 34533.8 hPa ENE 7.6 km/h 7.6 km/h 65 % 0 mm
18:50 -13.5 °C -15.7 °C 34601.5 hPa Calm   2.6 km/h 76 % 0 mm
18:51 -12.2 °C -15.7 °C 34533.8 hPa NE 9 km/h 9 km/h 65 % 0 mm
18:56 -12.2 °C -15.6 °C 34533.8 hPa East 9 km/h 9 km/h 66 % 0 mm
19:00 -13.6 °C -15.8 °C 34567.7 hPa Calm   5.1 km/h 76 % 0 mm
19:01 -12.3 °C -15.7 °C 34533.8 hPa NNE 6.3 km/h 6.3 km/h 66 % 0 mm
19:06 -12.3 °C -15.7 °C 34533.8 hPa ESE 9 km/h 9 km/h 66 % 0 mm
19:10 -13.6 °C -15.8 °C 34567.7 hPa Calm   2.6 km/h 76 % 0 mm
19:11 -12.3 °C -15.6 °C 34533.8 hPa NE 3.1 km/h   67 % 0 mm
19:16 -12.4 °C -15.6 °C 34533.8 hPa NE 2.3 km/h   67 % 0 mm
19:20 -13.6 °C -15.7 °C 34601.5 hPa Calm     77 % 0 mm
19:21 -12.4 °C -15.7 °C 34533.8 hPa NNE 5.6 km/h   67 % 0 mm
19:26 -12.6 °C -15.7 °C 34533.8 hPa NNE 6.8 km/h 6.8 km/h 68 % 0 mm
19:30 -13.7 °C -15.9 °C 34601.5 hPa WSW 5.1 km/h 5.1 km/h 76 % 0 mm
19:31 -12.7 °C -15.8 °C 34533.8 hPa ENE 6 km/h 6 km/h 68 % 0 mm
19:36 -12.7 °C -15.7 °C 34533.8 hPa ENE 3.7 km/h 4.2 km/h 69 % 0 mm
19:40 -13.6 °C -15.7 °C 34601.5 hPa West 5.1 km/h 5.1 km/h 77 % 0 mm
19:41 -12.7 °C -15.7 °C 34533.8 hPa Calm     69 % 0 mm
19:50 -13.6 °C -15.7 °C 34567.7 hPa NNE 2.6 km/h 5.1 km/h 77 % 0 mm
19:51 -12.8 °C -15.8 °C 34533.8 hPa SW 3.7 km/h 3.7 km/h 69 % 0 mm
19:56 -12.9 °C -15.9 °C 34567.7 hPa SW 6.3 km/h 6.3 km/h 69 % 0 mm
20:00 -13.7 °C -15.7 °C 34533.8 hPa Calm     78 % 0 mm
20:01 -13 °C -16 °C 34567.7 hPa WSW 6 km/h 6 km/h 69 % 0 mm
20:06 -13 °C -15.9 °C 34567.7 hPa WSW 3.1 km/h   70 % 0 mm
20:10 -13.7 °C -15.9 °C 34533.8 hPa NE 5.1 km/h 5.1 km/h 76 % 0 mm
20:11 -13 °C -15.8 °C 34567.7 hPa WSW 3.7 km/h 3.7 km/h 71 % 0 mm
20:16 -12.9 °C -15.7 °C 34567.7 hPa WSW 3.7 km/h 3.7 km/h 71 % 0 mm
20:20 -13.9 °C -16 °C 34533.8 hPa SW 2.6 km/h 5.1 km/h 77 % 0 mm
20:21 -12.9 °C -15.7 °C 34567.7 hPa SW 4.2 km/h 4.2 km/h 71 % 0 mm
20:26 -12.9 °C -15.7 °C 34601.5 hPa SW 6 km/h 6 km/h 71 % 0 mm
20:30 -13.9 °C -15.9 °C 34567.7 hPa Calm     78 % 0 mm
20:31 -12.9 °C -15.7 °C 34601.5 hPa SW 6 km/h 6 km/h 71 % 0 mm
20:36 -12.9 °C -15.7 °C 34601.5 hPa WSW 6 km/h 6 km/h 71 % 0 mm
20:40 -13.9 °C -15.9 °C 34567.7 hPa SW 2.6 km/h 5.1 km/h 78 % 0 mm
20:41 -12.9 °C -15.7 °C 34601.5 hPa Calm     71 % 0 mm
20:46 -12.9 °C -15.7 °C 34601.5 hPa Calm     71 % 0 mm
20:50 -13.9 °C -15.9 °C 34533.8 hPa Calm   5.1 km/h 78 % 0 mm
20:51 -12.9 °C -15.8 °C 34601.5 hPa SW 3.1 km/h   70 % 0 mm
20:56 -12.9 °C -15.8 °C 34601.5 hPa SW 6.8 km/h 6.8 km/h 70 % 0 mm
21:00 -13.9 °C -15.9 °C 34533.8 hPa WSW 2.6 km/h 5.1 km/h 78 % 0 mm
21:01 -12.9 °C -15.8 °C 34601.5 hPa WSW 6 km/h 6 km/h 70 % 0 mm
21:06 -12.9 °C -15.7 °C 34601.5 hPa WSW 6.3 km/h 6.3 km/h 71 % 0 mm
21:10 -14.1 °C -16.1 °C 34533.8 hPa Calm   2.6 km/h 78 % 0 mm
21:11 -12.9 °C -15.7 °C 34601.5 hPa WSW 6 km/h 6 km/h 71 % 0 mm
21:16 -12.9 °C -15.7 °C 34601.5 hPa WSW 4.2 km/h 4.2 km/h 71 % 0 mm
21:20 -14.1 °C -16.1 °C 34533.8 hPa Calm     78 % 0 mm
21:21 -12.9 °C -15.7 °C 34601.5 hPa WSW 3.7 km/h 3.7 km/h 71 % 0 mm
21:26 -12.9 °C -15.7 °C 34601.5 hPa WSW 6 km/h 6 km/h 71 % 0 mm
21:30 -14.2 °C -16.1 °C 34533.8 hPa Calm     79 % 0 mm
21:31 -12.9 °C -15.7 °C 34601.5 hPa SW 5.1 km/h 5.1 km/h 71 % 0 mm
21:36 -12.9 °C -15.7 °C 34601.5 hPa WSW 6 km/h 6 km/h 71 % 0 mm
21:40 -14.3 °C -16.2 °C 34533.8 hPa Calm   2.6 km/h 79 % 0 mm
21:46 -12.9 °C -15.7 °C 34601.5 hPa Calm     71 % 0 mm
21:50 -14.4 °C -16.3 °C 34533.8 hPa SSE 2.6 km/h 2.6 km/h 79 % 0 mm
21:51 -12.9 °C -15.7 °C 34601.5 hPa WSW 4.2 km/h 4.2 km/h 71 % 0 mm
21:56 -12.9 °C -15.7 °C 34601.5 hPa West 3.1 km/h 3.1 km/h 71 % 0 mm
22:00 -14.5 °C -16.3 °C 34533.8 hPa Calm     79 % 0 mm
22:01 -12.9 °C -15.7 °C 34601.5 hPa SW 3.1 km/h   71 % 0 mm
22:06 -12.9 °C -15.7 °C 34601.5 hPa WSW 3.1 km/h 3.1 km/h 71 % 0 mm
22:10 -14.6 °C -16.5 °C 34533.8 hPa Calm   2.6 km/h 79 % 0 mm
22:11 -12.9 °C -15.6 °C 34601.5 hPa WSW 4.2 km/h   72 % 0 mm
22:16 -12.9 °C -15.7 °C 34601.5 hPa SW 6 km/h 6 km/h 71 % 0 mm
22:20 -14.7 °C -16.4 °C 34533.8 hPa Calm   5.1 km/h 80 % 0 mm
22:21 -12.9 °C -15.6 °C 34601.5 hPa Calm     72 % 0 mm
22:26 -12.9 °C -15.6 °C 34601.5 hPa WSW 3.1 km/h   72 % 0 mm
22:30 -15 °C -16.8 °C 34533.8 hPa Calm     79 % 0 mm
22:31 -12.9 °C -15.6 °C 34601.5 hPa WSW 3.1 km/h 4.2 km/h 72 % 0 mm
22:36 -12.8 °C -15.6 °C 34601.5 hPa WNW 6 km/h 6 km/h 71 % 0 mm
22:40 -15 °C -16.8 °C 34533.8 hPa SE 2.6 km/h 5.1 km/h 79 % 0 mm
22:41 -12.9 °C -15.7 °C 34601.5 hPa SW 6 km/h 6 km/h 71 % 0 mm
22:46 -12.9 °C -15.6 °C 34601.5 hPa WSW 3.7 km/h   72 % 0 mm
22:50 -15 °C -16.8 °C 34533.8 hPa NE 2.6 km/h 5.1 km/h 80 % 0 mm
22:51 -12.9 °C -15.6 °C 34601.5 hPa WSW 2.3 km/h   72 % 0 mm
22:56 -12.9 °C -15.7 °C 34567.7 hPa SW 6 km/h 6 km/h 71 % 0 mm
23:00 -15.1 °C -16.8 °C 34533.8 hPa Calm   5.1 km/h 80 % 0 mm
23:01 -12.9 °C -15.7 °C 34567.7 hPa WSW 6 km/h 6 km/h 71 % 0 mm
23:06 -12.9 °C -15.6 °C 34567.7 hPa SW 3.1 km/h 3.1 km/h 72 % 0 mm
23:10 -15.4 °C -17.4 °C 34533.8 hPa SW 5.1 km/h 7.7 km/h 78 % 0 mm
23:11 -12.9 °C -15.5 °C 34601.5 hPa Calm     73 % 0 mm
23:16 -12.9 °C -15.5 °C 34601.5 hPa Calm     73 % 0 mm
23:20 -15.4 °C -17.3 °C 34533.8 hPa Calm   2.6 km/h 79 % 0 mm
23:21 -13 °C -15.5 °C 34601.5 hPa Calm     73 % 0 mm
23:26 -13 °C -15.5 °C 34601.5 hPa Calm     73 % 0 mm
23:30 -15.4 °C -17.2 °C 34533.8 hPa SW 2.6 km/h 2.6 km/h 80 % 0 mm
23:31 -13 °C -15.5 °C 34601.5 hPa Calm     73 % 0 mm
23:36 -13.1 °C -15.6 °C 34601.5 hPa Calm     73 % 0 mm
23:41 -13.1 °C -15.6 °C 34601.5 hPa West 3.1 km/h   73 % 0 mm
23:46 -13.1 °C -15.6 °C 34601.5 hPa Calm     73 % 0 mm
23:50 -15.5 °C -17.2 °C 34533.8 hPa Calm     81 % 0 mm
Meteo Sesrovires
Elogis d' Weather Underground - 3.75 mb

Guio original per  Jim McMurry - jmcmurry@mwt.net Adaptat per a la plantilla per  Wim van der Kuil - Leuven-Template.eu

Trobareu la nostra informacio del temps tambe a:

Weather Underground

AWEKAS